createdAt,value
2023-11-18T00:01:00.962Z,19.54
2023-11-18T00:03:31.202Z,19.53
2023-11-18T00:06:01.380Z,19.53
2023-11-18T00:08:32.268Z,19.52
2023-11-18T00:11:02.462Z,19.51
2023-11-18T00:13:32.621Z,19.50
2023-11-18T00:16:02.813Z,19.50
2023-11-18T00:18:33.235Z,19.49
2023-11-18T00:21:03.308Z,19.48
2023-11-18T00:23:33.449Z,19.48
2023-11-18T00:26:04.056Z,19.47
2023-11-18T00:28:34.172Z,19.46
2023-11-18T00:31:05.798Z,19.45
2023-11-18T00:33:36.160Z,19.45
2023-11-18T00:36:06.525Z,19.44
2023-11-18T00:38:37.018Z,19.43
2023-11-18T00:41:09.340Z,19.42
2023-11-18T00:43:39.466Z,19.43
2023-11-18T00:46:09.638Z,19.41
2023-11-18T00:48:39.999Z,19.41
2023-11-18T00:51:10.093Z,19.40
2023-11-18T00:53:43.027Z,19.38
2023-11-18T00:56:19.276Z,19.40
2023-11-18T00:58:49.930Z,19.42
2023-11-18T01:01:20.127Z,19.40
2023-11-18T01:03:50.319Z,19.38
2023-11-18T01:06:20.512Z,19.37
2023-11-18T01:08:50.703Z,19.36
2023-11-18T01:11:23.556Z,19.35
2023-11-18T01:13:57.534Z,19.36
2023-11-18T01:16:29.606Z,19.37
2023-11-18T01:19:00.726Z,19.36
2023-11-18T01:21:30.824Z,19.35
2023-11-18T01:24:01.217Z,19.33
2023-11-18T01:26:31.334Z,19.33
2023-11-18T01:29:01.426Z,19.31
2023-11-18T01:31:43.419Z,19.31
2023-11-18T01:34:18.438Z,19.38
2023-11-18T01:36:50.642Z,19.34
2023-11-18T01:39:20.919Z,19.34
2023-11-18T01:41:51.065Z,19.33
2023-11-18T01:44:21.206Z,19.31
2023-11-18T01:46:51.343Z,19.30
2023-11-18T01:49:23.043Z,19.28
2023-11-18T01:51:53.992Z,19.28
2023-11-18T01:54:25.396Z,19.27
2023-11-18T01:56:56.430Z,19.27
2023-11-18T01:59:27.129Z,19.26
2023-11-18T02:02:00.858Z,19.25
2023-11-18T02:04:32.103Z,19.25
2023-11-18T02:07:07.659Z,19.25
2023-11-18T02:09:38.552Z,19.27
2023-11-18T02:12:31.869Z,19.25
2023-11-18T02:15:10.936Z,19.37
2023-11-18T02:17:48.174Z,19.37
2023-11-18T02:20:22.560Z,19.37
2023-11-18T02:22:53.966Z,19.36
2023-11-18T02:25:30.087Z,19.35
2023-11-18T02:28:00.649Z,19.36
2023-11-18T02:30:32.243Z,19.34
2023-11-18T02:33:16.025Z,19.33
2023-11-18T02:36:01.782Z,19.39
2023-11-18T02:38:51.014Z,19.43
2023-11-18T02:41:24.606Z,19.47
2023-11-18T02:43:56.550Z,19.43
2023-11-18T02:46:29.017Z,19.39
2023-11-18T02:48:59.194Z,19.38
2023-11-18T02:51:29.536Z,19.35
2023-11-18T02:54:00.847Z,19.32
2023-11-18T02:56:30.929Z,19.31
2023-11-18T02:59:06.913Z,19.30
2023-11-18T03:01:37.072Z,19.31
2023-11-18T03:04:07.426Z,19.28
2023-11-18T03:06:37.774Z,19.27
2023-11-18T03:09:09.098Z,19.26
2023-11-18T03:11:39.935Z,19.25
2023-11-18T03:14:10.919Z,19.24
2023-11-18T03:16:41.229Z,19.23
2023-11-18T03:19:11.469Z,19.22
2023-11-18T03:21:41.599Z,19.21
2023-11-18T03:24:11.834Z,19.19
2023-11-18T03:26:41.922Z,19.19
2023-11-18T03:29:14.561Z,19.18
2023-11-18T03:31:46.041Z,19.18
2023-11-18T03:34:16.973Z,19.17
2023-11-18T03:36:49.840Z,19.17
2023-11-18T03:39:19.984Z,19.17
2023-11-18T03:41:51.143Z,19.16
2023-11-18T03:44:21.262Z,19.15
2023-11-18T03:46:51.378Z,19.14
2023-11-18T03:49:22.133Z,19.13
2023-11-18T03:51:52.231Z,19.12
2023-11-18T03:54:22.304Z,19.11
2023-11-18T03:56:52.387Z,19.11
2023-11-18T03:59:22.490Z,19.09
2023-11-18T04:01:52.633Z,19.09
2023-11-18T04:04:22.775Z,19.09
2023-11-18T04:06:52.983Z,19.07
2023-11-18T04:09:23.100Z,19.07
2023-11-18T04:11:53.177Z,19.07
2023-11-18T04:14:23.305Z,19.05
2023-11-18T04:16:54.749Z,19.05
2023-11-18T04:19:24.890Z,19.05
2023-11-18T04:21:54.985Z,19.04
2023-11-18T04:24:25.098Z,19.04
2023-11-18T04:26:56.375Z,19.03
2023-11-18T04:29:27.882Z,19.03
2023-11-18T04:31:57.980Z,19.03
2023-11-18T04:34:28.120Z,19.03
2023-11-18T04:36:58.192Z,19.04
2023-11-18T04:39:29.538Z,19.03
2023-11-18T04:41:59.602Z,19.03
2023-11-18T04:44:32.759Z,19.04
2023-11-18T04:47:03.493Z,19.05
2023-11-18T04:49:33.694Z,19.05
2023-11-18T04:52:03.762Z,19.04
2023-11-18T04:54:33.824Z,19.04
2023-11-18T04:57:04.063Z,19.04
2023-11-18T04:59:34.205Z,19.04
2023-11-18T05:02:04.557Z,19.04
2023-11-18T05:04:34.795Z,19.04
2023-11-18T05:07:05.545Z,19.03
2023-11-18T05:09:35.707Z,19.04
2023-11-18T05:12:06.117Z,19.03
2023-11-18T05:14:36.980Z,19.03
2023-11-18T05:17:11.653Z,19.03
2023-11-18T05:19:42.348Z,19.05
2023-11-18T05:22:12.465Z,19.04
2023-11-18T05:24:45.201Z,19.03
2023-11-18T05:27:15.512Z,19.04
2023-11-18T05:29:55.448Z,19.04
2023-11-18T05:32:26.879Z,19.08
2023-11-18T05:34:59.125Z,19.06
2023-11-18T05:37:30.394Z,19.06
2023-11-18T05:40:07.148Z,19.05
2023-11-18T05:42:40.593Z,19.07
2023-11-18T05:45:19.072Z,19.06
2023-11-18T05:47:49.339Z,19.08
2023-11-18T05:50:19.478Z,19.06
2023-11-18T05:52:49.699Z,19.04
2023-11-18T05:55:19.851Z,19.02
2023-11-18T05:57:49.971Z,19.01
2023-11-18T06:00:27.314Z,19.00
2023-11-18T06:03:01.940Z,19.04
2023-11-18T06:05:32.487Z,19.02
2023-11-18T06:08:02.847Z,19.00
2023-11-18T06:10:33.494Z,18.99
2023-11-18T06:13:05.669Z,18.98
2023-11-18T06:15:37.080Z,18.97
2023-11-18T06:18:07.776Z,18.97
2023-11-18T06:20:39.720Z,18.97
2023-11-18T06:23:09.997Z,18.97
2023-11-18T06:25:43.450Z,18.95
2023-11-18T06:28:13.572Z,18.96
2023-11-18T06:30:43.707Z,18.95
2023-11-18T06:33:13.965Z,18.94
2023-11-18T06:35:44.025Z,18.94
2023-11-18T06:38:16.500Z,18.93
2023-11-18T06:40:47.339Z,18.94
2023-11-18T06:43:18.059Z,18.93
2023-11-18T06:45:49.888Z,18.93
2023-11-18T06:48:21.395Z,18.93
2023-11-18T06:50:51.559Z,18.93
2023-11-18T06:53:21.912Z,18.93
2023-11-18T06:55:52.048Z,18.92
2023-11-18T06:58:22.738Z,18.93
2023-11-18T07:00:52.988Z,18.92
2023-11-18T07:03:23.180Z,18.92
2023-11-18T07:05:53.336Z,18.91
2023-11-18T07:08:23.442Z,18.90
2023-11-18T07:10:53.587Z,18.90
2023-11-18T07:13:24.408Z,18.89
2023-11-18T07:15:58.760Z,18.91
2023-11-18T07:18:34.860Z,18.95
2023-11-18T07:21:07.131Z,19.01
2023-11-18T07:23:37.484Z,19.03
2023-11-18T07:26:07.613Z,19.05
2023-11-18T07:28:38.291Z,19.08
2023-11-18T07:31:09.307Z,19.11
2023-11-18T07:33:41.924Z,19.14
2023-11-18T07:36:13.361Z,19.18
2023-11-18T07:38:43.515Z,19.18
2023-11-18T07:41:24.817Z,19.19
2023-11-18T07:43:58.218Z,19.24
2023-11-18T07:46:30.069Z,19.24
2023-11-18T07:49:02.888Z,19.25
2023-11-18T07:51:33.202Z,19.27
2023-11-18T07:54:04.844Z,19.27
2023-11-18T07:56:36.315Z,19.27
2023-11-18T07:59:09.733Z,19.28
2023-11-18T08:01:45.802Z,19.30
2023-11-18T08:04:16.218Z,19.34
2023-11-18T08:06:46.395Z,19.33
2023-11-18T08:09:23.792Z,19.34
2023-11-18T08:11:56.858Z,19.39
2023-11-18T08:14:28.096Z,19.40
2023-11-18T08:17:01.358Z,19.38
2023-11-18T08:19:31.599Z,19.40
2023-11-18T08:22:02.488Z,19.40
2023-11-18T08:24:34.663Z,19.41
2023-11-18T08:27:05.527Z,19.42
2023-11-18T08:29:35.878Z,19.42
2023-11-18T08:32:06.513Z,19.42
2023-11-18T08:34:38.767Z,19.42
2023-11-18T08:37:10.630Z,19.42
2023-11-18T08:39:41.410Z,19.41
2023-11-18T08:42:11.569Z,19.39
2023-11-18T08:44:41.799Z,19.37
2023-11-18T08:47:14.000Z,19.35
2023-11-18T08:49:47.663Z,19.34
2023-11-18T08:52:19.094Z,19.34
2023-11-18T08:55:07.838Z,19.32
2023-11-18T08:57:53.561Z,19.40
2023-11-18T09:00:42.246Z,19.42
2023-11-18T09:03:19.242Z,19.46
2023-11-18T09:05:59.499Z,19.44
2023-11-18T09:08:33.581Z,19.44
2023-11-18T09:11:08.625Z,19.41
2023-11-18T09:13:40.195Z,19.40
2023-11-18T09:16:10.836Z,19.37
2023-11-18T09:18:44.545Z,19.34
2023-11-18T09:21:20.905Z,19.34
2023-11-18T09:23:51.249Z,19.35
2023-11-18T09:26:22.979Z,19.32
2023-11-18T09:28:54.036Z,19.31
2023-11-18T09:31:24.343Z,19.29
2023-11-18T09:33:54.745Z,19.28
2023-11-18T09:36:25.050Z,19.27
2023-11-18T09:38:55.135Z,19.25
2023-11-18T09:41:28.946Z,19.25
2023-11-18T09:44:03.849Z,19.27
2023-11-18T09:46:42.190Z,19.28
2023-11-18T09:49:40.270Z,19.29
2023-11-18T09:52:12.705Z,19.40
2023-11-18T09:55:04.654Z,19.34
2023-11-18T09:57:42.729Z,19.41
2023-11-18T10:00:22.291Z,19.39
2023-11-18T10:02:53.472Z,19.37
2023-11-18T10:05:28.460Z,19.32
2023-11-18T10:08:00.012Z,19.30
2023-11-18T10:10:38.224Z,19.26
2023-11-18T10:13:23.109Z,19.27
2023-11-18T10:15:53.731Z,19.30
2023-11-18T10:18:25.730Z,19.25
2023-11-18T10:20:55.950Z,19.21
2023-11-18T10:23:29.089Z,19.18
2023-11-18T10:26:04.701Z,19.16
2023-11-18T10:28:39.446Z,19.16
2023-11-18T10:31:11.078Z,19.14
2023-11-18T10:33:45.855Z,19.12
2023-11-18T10:36:24.896Z,19.11
2023-11-18T10:38:57.785Z,19.13
2023-11-18T10:41:28.209Z,19.09
2023-11-18T10:44:16.229Z,19.05
2023-11-18T10:47:00.071Z,19.12
2023-11-18T10:49:38.775Z,19.13
2023-11-18T10:52:10.253Z,19.12
2023-11-18T10:54:55.760Z,19.08
2023-11-18T10:57:27.356Z,19.11
2023-11-18T11:00:16.685Z,19.06
2023-11-18T11:02:51.708Z,19.12
2023-11-18T11:05:39.568Z,19.08
2023-11-18T11:08:14.275Z,19.12
2023-11-18T11:10:49.728Z,19.08
2023-11-18T11:13:20.834Z,19.07
2023-11-18T11:15:57.764Z,19.04
2023-11-18T11:18:36.287Z,19.06
2023-11-18T11:21:10.592Z,19.08
2023-11-18T11:24:14.150Z,19.07
2023-11-18T11:27:04.310Z,19.22
2023-11-18T11:29:55.999Z,19.23
2023-11-18T11:32:42.650Z,19.25
2023-11-18T11:35:34.338Z,19.26
2023-11-18T11:38:11.308Z,19.28
2023-11-18T11:40:43.990Z,19.22
2023-11-18T11:43:21.357Z,19.17
2023-11-18T11:45:55.754Z,19.16
2023-11-18T11:48:29.312Z,19.13
2023-11-18T11:51:16.120Z,19.12
2023-11-18T11:54:16.744Z,19.15
2023-11-18T11:57:00.841Z,19.24
2023-11-18T11:59:48.065Z,19.21
2023-11-18T12:02:27.258Z,19.21
2023-11-18T12:05:07.927Z,19.17
2023-11-18T12:07:43.013Z,19.16
2023-11-18T12:10:22.454Z,19.12
2023-11-18T12:13:18.341Z,19.11
2023-11-18T12:16:15.387Z,19.19
2023-11-18T12:19:31.197Z,19.23
2023-11-18T12:22:14.403Z,19.33
2023-11-18T12:25:30.895Z,19.27
2023-11-18T12:28:11.563Z,19.38
2023-11-18T12:30:53.592Z,19.30
2023-11-18T12:33:48.486Z,19.25
2023-11-18T12:36:58.649Z,19.28
2023-11-18T12:40:14.644Z,19.35
2023-11-18T12:43:01.215Z,19.42
2023-11-18T12:45:55.032Z,19.35
2023-11-18T12:48:33.745Z,19.34
2023-11-18T12:51:11.575Z,19.26
2023-11-18T12:53:45.928Z,19.21
2023-11-18T12:56:24.826Z,19.15
2023-11-18T12:58:59.424Z,19.13
2023-11-18T13:01:37.722Z,19.09
2023-11-18T13:04:12.277Z,19.07
2023-11-18T13:06:47.012Z,19.03
2023-11-18T13:09:31.493Z,19.01
2023-11-18T13:12:06.727Z,19.04
2023-11-18T13:14:45.059Z,19.02
2023-11-18T13:17:19.773Z,19.02
2023-11-18T13:19:55.570Z,19.01
2023-11-18T13:22:42.544Z,19.02
2023-11-18T13:25:20.709Z,19.09
2023-11-18T13:27:55.795Z,19.06
2023-11-18T13:30:30.591Z,19.05
2023-11-18T13:33:05.011Z,19.06
2023-11-18T13:35:39.667Z,19.05
2023-11-18T13:38:15.435Z,19.07
2023-11-18T13:40:50.849Z,19.07
2023-11-18T13:43:25.213Z,19.08
2023-11-18T13:46:01.335Z,19.09
2023-11-18T13:48:35.737Z,19.11
2023-11-18T13:51:16.874Z,19.11
2023-11-18T13:53:53.771Z,19.14
2023-11-18T13:56:29.223Z,19.15
2023-11-18T13:59:07.224Z,19.16
2023-11-18T14:01:41.634Z,19.17
2023-11-18T14:04:16.101Z,19.17
2023-11-18T14:06:54.593Z,19.16
2023-11-18T14:09:31.242Z,19.18
2023-11-18T14:12:07.589Z,19.18
2023-11-18T14:14:43.018Z,19.18
2023-11-18T14:17:18.084Z,19.18
2023-11-18T14:19:53.681Z,19.17
2023-11-18T14:22:29.312Z,19.17
2023-11-18T14:25:07.318Z,19.16
2023-11-18T14:27:42.366Z,19.17
2023-11-18T14:30:17.739Z,19.15
2023-11-18T14:32:52.818Z,19.15
2023-11-18T14:35:30.099Z,19.14
2023-11-18T14:38:05.045Z,19.14
2023-11-18T14:40:41.154Z,19.13
2023-11-18T14:43:15.711Z,19.12
2023-11-18T14:45:56.193Z,19.11
2023-11-18T14:48:30.596Z,19.12
2023-11-18T14:51:05.908Z,19.10
2023-11-18T14:53:40.504Z,19.08
2023-11-18T14:56:16.118Z,19.08
2023-11-18T14:58:50.740Z,19.06
2023-11-18T15:01:25.245Z,19.05
2023-11-18T15:03:59.900Z,19.04
2023-11-18T15:06:34.488Z,19.03
2023-11-18T15:09:12.427Z,19.02
2023-11-18T15:11:46.926Z,19.02
2023-11-18T15:14:21.594Z,19.01
2023-11-18T15:16:56.015Z,19.00
2023-11-18T15:19:30.485Z,18.99
2023-11-18T15:22:07.975Z,18.98
2023-11-18T15:24:42.483Z,18.99
2023-11-18T15:27:21.207Z,18.98
2023-11-18T15:29:55.821Z,18.98
2023-11-18T15:32:32.961Z,18.97
2023-11-18T15:35:10.709Z,18.98
2023-11-18T15:37:49.848Z,18.98
2023-11-18T15:40:27.097Z,18.99
2023-11-18T15:43:07.034Z,18.99
2023-11-18T15:45:41.630Z,19.00
2023-11-18T15:48:16.225Z,18.98
2023-11-18T15:50:51.189Z,18.97
2023-11-18T15:53:25.843Z,18.96
2023-11-18T15:56:00.404Z,18.95
2023-11-18T15:58:34.838Z,18.95
2023-11-18T16:01:11.148Z,18.94
2023-11-18T16:03:45.994Z,18.96
2023-11-18T16:06:20.425Z,18.97
2023-11-18T16:08:54.838Z,18.98
2023-11-18T16:11:29.183Z,18.99
2023-11-18T16:14:03.580Z,19.00
2023-11-18T16:16:39.377Z,19.01
2023-11-18T16:19:13.717Z,19.04
2023-11-18T16:21:49.040Z,19.06
2023-11-18T16:24:19.123Z,19.05
2023-11-18T16:26:49.293Z,19.04
2023-11-18T16:29:19.650Z,19.02
2023-11-18T16:31:50.358Z,19.01
2023-11-18T16:34:21.293Z,19.01
2023-11-18T16:36:51.443Z,19.00
2023-11-18T16:39:22.267Z,18.99
2023-11-18T16:41:52.335Z,18.99
2023-11-18T16:44:22.508Z,18.98
2023-11-18T16:46:53.258Z,18.97
2023-11-18T16:49:25.168Z,18.98
2023-11-18T16:51:59.296Z,18.99
2023-11-18T16:54:38.968Z,19.02
2023-11-18T16:57:11.098Z,19.06
2023-11-18T16:59:41.252Z,19.05
2023-11-18T17:02:11.433Z,19.06
2023-11-18T17:04:41.752Z,19.07
2023-11-18T17:07:11.832Z,19.09
2023-11-18T17:09:42.083Z,19.11
2023-11-18T17:12:12.168Z,19.13
2023-11-18T17:14:42.335Z,19.16
2023-11-18T17:17:13.095Z,19.18
2023-11-18T17:19:43.188Z,19.20
2023-11-18T17:22:15.182Z,19.22
2023-11-18T17:24:45.205Z,19.25
2023-11-18T17:27:15.327Z,19.26
2023-11-18T17:29:45.438Z,19.27
2023-11-18T17:32:15.566Z,19.28
2023-11-18T17:34:45.600Z,19.30
2023-11-18T17:37:15.666Z,19.31
2023-11-18T17:39:45.692Z,19.31
2023-11-18T17:42:16.308Z,19.32
2023-11-18T17:44:46.394Z,19.33
2023-11-18T17:47:17.160Z,19.34
2023-11-18T17:52:31.326Z,19.42
2023-11-18T17:55:03.954Z,19.40
2023-11-18T17:57:34.026Z,19.41
2023-11-18T18:00:10.064Z,19.39
2023-11-18T18:02:41.052Z,19.41
2023-11-18T18:05:14.903Z,19.40
2023-11-18T18:07:45.458Z,19.40
2023-11-18T18:10:15.566Z,19.39
2023-11-18T18:12:48.702Z,19.38
2023-11-18T18:15:19.225Z,19.38
2023-11-18T18:17:49.557Z,19.37
2023-11-18T18:20:21.568Z,19.36
2023-11-18T18:22:51.837Z,19.36
2023-11-18T18:25:22.086Z,19.34
2023-11-18T18:27:53.624Z,19.34
2023-11-18T18:30:23.807Z,19.33
2023-11-18T18:32:53.907Z,19.33
2023-11-18T18:35:24.949Z,19.32
2023-11-18T18:37:55.038Z,19.32
2023-11-18T18:40:25.233Z,19.32
2023-11-18T18:42:55.495Z,19.31
2023-11-18T18:45:25.641Z,19.31
2023-11-18T18:47:56.867Z,19.31
2023-11-18T18:50:37.475Z,19.31
2023-11-18T18:53:08.892Z,19.37
2023-11-18T18:55:39.122Z,19.35
2023-11-18T18:58:09.279Z,19.33
2023-11-18T19:00:39.412Z,19.31
2023-11-18T19:03:09.579Z,19.31
2023-11-18T19:05:39.977Z,19.29
2023-11-18T19:08:11.061Z,19.29
2023-11-18T19:10:41.190Z,19.29
2023-11-18T19:13:11.883Z,19.27
2023-11-18T19:15:42.042Z,19.27
2023-11-18T19:18:13.652Z,19.27
2023-11-18T19:20:43.831Z,19.26
2023-11-18T19:23:14.127Z,19.26
2023-11-18T19:25:44.270Z,19.26
2023-11-18T19:28:14.485Z,19.24
2023-11-18T19:30:44.953Z,19.23
2023-11-18T19:33:15.453Z,19.23
2023-11-18T19:35:46.045Z,19.23
2023-11-18T19:38:16.224Z,19.22
2023-11-18T19:40:46.798Z,19.21
2023-11-18T19:43:16.951Z,19.21
2023-11-18T19:45:50.531Z,19.20
2023-11-18T19:48:20.974Z,19.21
2023-11-18T19:50:52.560Z,19.20
2023-11-18T19:53:23.279Z,19.21
2023-11-18T19:55:57.794Z,19.19
2023-11-18T19:58:28.210Z,19.21
2023-11-18T20:00:58.626Z,19.20
2023-11-18T20:03:29.047Z,19.19
2023-11-18T20:05:59.239Z,19.18
2023-11-18T20:08:29.449Z,19.18
2023-11-18T20:10:59.602Z,19.17
2023-11-18T20:13:29.998Z,19.17
2023-11-18T20:16:00.157Z,19.17
2023-11-18T20:18:30.947Z,19.17
2023-11-18T20:21:01.045Z,19.17
2023-11-18T20:23:31.180Z,19.16
2023-11-18T20:26:01.374Z,19.15
2023-11-18T20:28:31.596Z,19.16
2023-11-18T20:31:01.899Z,19.15
2023-11-18T20:33:32.185Z,19.15
2023-11-18T20:36:02.353Z,19.15
2023-11-18T20:38:35.475Z,19.14
2023-11-18T20:41:05.730Z,19.16
2023-11-18T20:43:36.730Z,19.15
2023-11-18T20:46:07.508Z,19.15
2023-11-18T20:48:37.885Z,19.15
2023-11-18T20:51:09.814Z,19.14
2023-11-18T20:53:42.108Z,19.15
2023-11-18T20:56:13.040Z,19.16
2023-11-18T20:58:48.827Z,19.15
2023-11-18T21:01:20.464Z,19.18
2023-11-18T21:03:50.738Z,19.17
2023-11-18T21:06:21.938Z,19.16
2023-11-18T21:08:52.701Z,19.16
2023-11-18T21:11:25.412Z,19.14
2023-11-18T21:13:56.083Z,19.16
2023-11-18T21:16:26.169Z,19.14
2023-11-18T21:18:59.192Z,19.14
2023-11-18T21:21:30.220Z,19.16
2023-11-18T21:24:04.293Z,19.15
2023-11-18T21:26:35.312Z,19.16
2023-11-18T21:29:05.557Z,19.15
2023-11-18T21:31:35.638Z,19.16
2023-11-18T21:34:05.974Z,19.13
2023-11-18T21:36:36.095Z,19.13
2023-11-18T21:39:06.374Z,19.12
2023-11-18T21:41:37.006Z,19.13
2023-11-18T21:44:10.094Z,19.13
2023-11-18T21:46:40.264Z,19.13
2023-11-18T21:49:13.095Z,19.13
2023-11-18T21:51:43.231Z,19.13
2023-11-18T21:54:13.349Z,19.12
2023-11-18T21:56:43.513Z,19.10
2023-11-18T21:59:14.759Z,19.09
2023-11-18T22:01:44.953Z,19.10
2023-11-18T22:04:15.527Z,19.10
2023-11-18T22:06:45.626Z,19.09
2023-11-18T22:09:21.398Z,19.13
2023-11-18T22:11:51.629Z,19.20
2023-11-18T22:14:23.200Z,19.21
2023-11-18T22:16:53.292Z,19.21
2023-11-18T22:19:23.411Z,19.21
2023-11-18T22:21:53.966Z,19.20
2023-11-18T22:24:24.543Z,19.19
2023-11-18T22:26:55.629Z,19.19
2023-11-18T22:29:25.898Z,19.18
2023-11-18T22:31:56.562Z,19.17
2023-11-18T22:34:26.647Z,19.16
2023-11-18T22:36:56.904Z,19.15
2023-11-18T22:39:26.977Z,19.14
2023-11-18T22:41:57.908Z,19.12
2023-11-18T22:44:28.004Z,19.11
2023-11-18T22:46:59.316Z,19.11
2023-11-18T22:49:35.114Z,19.11
2023-11-18T22:52:05.409Z,19.12
2023-11-18T22:54:35.640Z,19.11
2023-11-18T22:57:05.819Z,19.09
2023-11-18T22:59:37.374Z,19.08
2023-11-18T23:02:11.951Z,19.07
2023-11-18T23:04:42.234Z,19.09
2023-11-18T23:07:13.389Z,19.08
2023-11-18T23:09:43.480Z,19.07
2023-11-18T23:12:13.601Z,19.05
2023-11-18T23:14:43.822Z,19.04
2023-11-18T23:17:13.993Z,19.03
2023-11-18T23:19:49.895Z,19.02
2023-11-18T23:22:20.715Z,19.06
2023-11-18T23:24:51.565Z,19.04
2023-11-18T23:27:24.507Z,19.03
2023-11-18T23:29:54.599Z,19.04
2023-11-18T23:32:24.663Z,19.03
2023-11-18T23:34:56.252Z,19.02
2023-11-18T23:37:26.623Z,19.02
2023-11-18T23:39:57.546Z,19.01
2023-11-18T23:42:27.659Z,19.01
2023-11-18T23:44:57.750Z,19.00
2023-11-18T23:47:27.808Z,18.99
2023-11-18T23:49:58.376Z,18.99
2023-11-18T23:52:28.429Z,18.98
2023-11-18T23:54:58.540Z,18.97
2023-11-18T23:57:28.649Z,18.97
